Time;durP1;ratioP1;P1;durP2;ratioP2;P2;SDS_P1;SDS_P2;PMS_P1;PMS_P2;Temp;Humidity;BMP_temperature;BMP_pressure;BME280_temperature;BME280_humidity;BME280_pressure;Samples;Min_cycle;Max_cycle;Signal;HPM_P1;HPM_P2
2024/03/13 00:02:53;;;;;;;29.00;19.10;;;;;;;6.57;97.15;99964.98;130706;1259;107633;-83
2024/03/13 00:05:59;;;;;;;25.50;19.00;;;;;;;6.54;97.04;99965.83;130744;1259;107406;-82
2024/03/13 00:09:04;;;;;;;25.70;17.60;;;;;;;6.54;96.99;99962.98;130907;1257;106948;-83
2024/03/13 00:12:10;;;;;;;22.30;15.80;;;;;;;6.58;96.98;99962.48;130802;1259;106180;-83
2024/03/13 00:15:16;;;;;;;25.30;16.60;;;;;;;6.58;96.91;99960.36;130738;1260;107566;-83
2024/03/13 00:18:22;;;;;;;24.40;17.40;;;;;;;6.59;97.45;99964.34;130890;1260;107036;-83
2024/03/13 00:21:28;;;;;;;26.30;18.70;;;;;;;6.56;97.40;99965.17;130858;1261;106689;-83
2024/03/13 00:24:34;;;;;;;26.10;18.10;;;;;;;6.55;96.77;99966.06;130898;1257;108680;-83
2024/03/13 00:27:41;;;;;;;27.20;18.80;;;;;;;6.58;97.26;99964.72;130958;1257;107440;-83
2024/03/13 00:30:47;;;;;;;30.40;18.60;;;;;;;6.54;97.66;99961.98;130713;1257;107422;-83
2024/03/13 00:33:53;;;;;;;30.10;18.80;;;;;;;6.43;97.32;99963.79;130805;1257;109137;-83
2024/03/13 00:36:59;;;;;;;26.70;16.40;;;;;;;6.42;97.60;99968.25;130696;1257;107576;-83
2024/03/13 00:40:06;;;;;;;32.50;20.60;;;;;;;6.47;97.55;99966.95;130752;1257;107267;-82
2024/03/13 00:43:12;;;;;;;31.70;20.40;;;;;;;6.50;97.40;99966.73;130752;1257;108844;-82
2024/03/13 00:46:17;;;;;;;35.80;22.70;;;;;;;6.52;97.32;99961.77;130747;1257;107391;-83
2024/03/13 00:49:23;;;;;;;33.90;22.20;;;;;;;6.53;97.60;99963.44;130769;1257;107176;-83
2024/03/13 00:52:29;;;;;;;32.10;19.80;;;;;;;6.51;97.23;99960.98;130665;1261;108181;-83
2024/03/13 00:55:35;;;;;;;30.40;18.80;;;;;;;6.50;97.27;99960.71;130762;1257;106479;-83
2024/03/13 00:58:40;;;;;;;29.30;18.40;;;;;;;6.51;97.48;99956.90;130704;1269;108461;-83
2024/03/13 01:01:48;;;;;;;32.20;21.30;;;;;;;6.57;97.73;99963.59;130729;1259;108721;-83
2024/03/13 01:04:54;;;;;;;34.60;22.80;;;;;;;6.60;97.59;99961.78;130818;1259;106234;-83
2024/03/13 01:08:00;;;;;;;34.30;22.10;;;;;;;6.56;97.27;99960.18;130768;1257;108722;-82
2024/03/13 01:11:07;;;;;;;34.50;23.30;;;;;;;6.57;97.84;99964.88;130751;1257;107838;-83
2024/03/13 01:14:13;;;;;;;33.50;20.50;;;;;;;6.53;97.55;99968.54;130699;1259;108325;-82
2024/03/13 01:17:19;;;;;;;31.90;20.00;;;;;;;6.48;97.71;99966.02;130743;1259;108715;-83
2024/03/13 01:20:25;;;;;;;34.20;22.50;;;;;;;6.45;97.78;99970.80;130772;1257;108626;-83
2024/03/13 01:23:31;;;;;;;37.00;23.40;;;;;;;6.46;98.34;99968.77;130755;1259;107524;-83
2024/03/13 01:26:37;;;;;;;36.70;23.90;;;;;;;6.46;98.06;99967.20;130844;1260;108619;-83
2024/03/13 01:29:46;;;;;;;39.80;24.90;;;;;;;6.47;97.92;99965.88;130864;1260;106249;-83
2024/03/13 01:32:51;;;;;;;35.30;22.60;;;;;;;6.48;97.74;99962.81;130921;1259;108623;-82
2024/03/13 01:35:58;;;;;;;36.50;22.30;;;;;;;6.52;98.00;99960.69;130824;1257;108674;-83
2024/03/13 01:39:04;;;;;;;42.30;25.90;;;;;;;6.50;97.85;99962.09;130729;1259;107149;-83
2024/03/13 01:56:26;;;;;;;39.80;23.10;;;;;;;6.46;98.10;99964.73;130893;1259;108085;-82
2024/03/13 01:59:38;;;;;;;43.00;23.60;;;;;;;6.43;98.10;99965.89;130754;1260;108682;-82
2024/03/13 02:02:46;;;;;;;47.80;26.20;;;;;;;6.46;98.04;99968.77;130796;1260;105448;-82
2024/03/13 02:05:53;;;;;;;44.30;25.50;;;;;;;6.51;98.16;99968.17;130773;1269;107766;-82
2024/03/13 02:08:59;;;;;;;49.80;27.60;;;;;;;6.52;98.66;99969.02;130758;1263;107702;-82
2024/03/13 02:12:10;;;;;;;50.90;28.90;;;;;;;6.43;98.55;99970.65;130735;1260;107664;-82
2024/03/13 02:15:16;;;;;;;44.70;25.20;;;;;;;6.36;98.30;99971.29;130739;1259;108598;-82
2024/03/13 02:18:27;;;;;;;43.00;23.70;;;;;;;6.36;98.44;99972.52;130725;1257;107763;-83
2024/03/13 02:21:33;;;;;;;41.60;23.10;;;;;;;6.36;98.68;99972.38;130754;1260;107262;-83
2024/03/13 02:24:36;;;;;;;49.60;27.40;;;;;;;6.36;99.30;99973.55;130774;1260;107143;-82
2024/03/13 02:27:39;;;;;;;45.90;26.40;;;;;;;6.37;98.56;99974.04;130534;1263;107763;-82
2024/03/13 02:30:43;;;;;;;51.30;27.70;;;;;;;6.38;98.64;99971.80;130545;1265;106676;-82
2024/03/13 02:33:46;;;;;;;53.70;28.80;;;;;;;6.41;98.40;99973.85;130574;1257;107753;-82
2024/03/13 02:36:49;;;;;;;48.40;26.50;;;;;;;6.36;99.10;99973.75;130511;1257;107337;-83
2024/03/13 02:39:52;;;;;;;44.70;24.20;;;;;;;6.28;98.71;99975.27;130506;1257;98010;-83
2024/03/13 02:42:55;;;;;;;42.20;23.60;;;;;;;6.27;98.78;99979.95;130575;1265;107359;-82
2024/03/13 02:45:58;;;;;;;53.50;26.70;;;;;;;6.33;98.54;99979.48;130535;1260;98026;-82
2024/03/13 02:49:01;;;;;;;49.50;28.30;;;;;;;6.44;98.49;99980.28;130608;1273;107924;-82
2024/03/13 02:52:05;;;;;;;45.90;26.60;;;;;;;6.51;98.25;99984.98;130534;1268;107671;-82
2024/03/13 02:55:10;;;;;;;46.90;26.80;;;;;;;6.49;98.01;99981.48;130670;1260;108508;-82
2024/03/13 02:58:13;;;;;;;41.40;22.20;;;;;;;6.45;98.15;99985.54;130658;1264;108684;-82
2024/03/13 03:01:16;;;;;;;40.90;21.90;;;;;;;6.38;98.21;99983.16;130648;1263;108356;-83
2024/03/13 03:04:19;;;;;;;46.70;26.10;;;;;;;6.36;98.13;99987.21;130481;1257;107610;-83
2024/03/13 03:07:22;;;;;;;47.90;26.00;;;;;;;6.39;97.96;99986.41;130539;1260;99028;-82
2024/03/13 03:10:25;;;;;;;51.30;28.30;;;;;;;6.40;98.02;99985.08;130589;1263;108086;-82
2024/03/13 03:13:28;;;;;;;50.50;28.20;;;;;;;6.39;98.15;99988.64;130509;1272;106659;-82
2024/03/13 03:16:31;;;;;;;48.90;25.20;;;;;;;6.40;98.02;99986.98;130499;1264;98108;-83
2024/03/13 03:19:34;;;;;;;44.70;24.20;;;;;;;6.39;98.06;99991.11;130632;1263;98824;-82
2024/03/13 03:22:37;;;;;;;46.20;23.00;;;;;;;6.41;98.19;99990.45;130509;1257;98025;-82
2024/03/13 03:25:40;;;;;;;54.60;29.30;;;;;;;6.43;97.97;99990.65;130575;1261;108417;-82
2024/03/13 03:28:44;;;;;;;55.60;28.50;;;;;;;6.39;98.25;99988.17;130531;1269;108653;-83
2024/03/13 03:31:47;;;;;;;54.80;27.90;;;;;;;6.38;98.23;99990.21;130767;1271;109040;-83
2024/03/13 03:34:50;;;;;;;62.50;30.20;;;;;;;6.38;98.30;99989.81;130758;1263;108709;-81
2024/03/13 03:37:53;;;;;;;53.80;26.20;;;;;;;6.39;98.07;99994.17;130570;1263;98043;-79
2024/03/13 03:40:56;;;;;;;49.90;24.10;;;;;;;6.41;98.20;99992.71;130506;1263;97994;-80
2024/03/13 03:43:59;;;;;;;53.50;24.90;;;;;;;6.42;98.21;99995.48;130587;1259;98139;-82
2024/03/13 03:47:02;;;;;;;55.20;25.50;;;;;;;6.44;98.41;99997.07;130872;1254;106959;-82
2024/03/13 03:50:07;;;;;;;53.80;28.80;;;;;;;6.48;98.30;99995.34;130923;1263;106785;-82
2024/03/13 03:53:10;;;;;;;52.30;27.80;;;;;;;6.49;98.40;99997.52;130503;1260;108162;-81
2024/03/13 03:56:13;;;;;;;56.50;29.30;;;;;;;6.50;97.91;100000.81;130721;1268;98859;-82
2024/03/13 03:59:16;;;;;;;53.70;28.80;;;;;;;6.42;97.93;100005.75;130761;1260;107302;-82
2024/03/13 04:02:19;;;;;;;56.00;28.40;;;;;;;6.35;98.27;100007.96;130650;1261;106933;-81
2024/03/13 04:05:22;;;;;;;48.50;24.60;;;;;;;6.25;98.66;100010.31;130522;1263;109028;-81
2024/03/13 04:08:25;;;;;;;48.70;26.30;;;;;;;6.23;98.75;100014.61;130644;1270;98030;-81
2024/03/13 04:11:28;;;;;;;56.70;29.70;;;;;;;6.23;98.96;100017.77;130660;1263;98730;-81
2024/03/13 04:14:31;;;;;;;51.50;28.00;;;;;;;6.23;98.99;100020.06;130553;1263;97951;-82
2024/03/13 04:17:35;;;;;;;53.10;29.10;;;;;;;6.19;98.83;100018.27;130537;1263;99125;-81
2024/03/13 04:20:38;;;;;;;45.00;25.30;;;;;;;6.17;98.71;100020.39;130527;1257;109454;-82
2024/03/13 04:23:44;;;;;;;49.30;24.20;;;;;;;6.13;98.82;100018.84;130456;1258;99247;-81
2024/03/13 04:26:47;;;;;;;46.60;24.30;;;;;;;6.16;98.70;100018.92;130457;1264;106561;-81
2024/03/13 04:29:50;;;;;;;50.40;25.90;;;;;;;6.19;98.74;100024.28;130478;1263;98628;-81
2024/03/13 04:32:53;;;;;;;47.40;26.60;;;;;;;6.20;98.67;100020.50;130450;1270;108748;-82
2024/03/13 04:35:57;;;;;;;44.40;25.00;;;;;;;6.22;98.55;100023.30;130599;1263;107712;-83
2024/03/13 04:39:00;;;;;;;41.20;24.40;;;;;;;6.18;98.76;100023.13;130635;1261;107569;-81
2024/03/13 04:42:04;;;;;;;35.80;21.70;;;;;;;6.16;98.90;100024.05;130544;1263;106873;-82
2024/03/13 04:45:07;;;;;;;33.50;20.10;;;;;;;6.14;98.93;100025.81;130637;1257;108603;-82
2024/03/13 04:48:11;;;;;;;35.80;21.60;;;;;;;6.08;98.34;100024.02;130652;1263;105868;-81
2024/03/13 04:51:14;;;;;;;36.30;22.20;;;;;;;6.06;98.65;100029.95;130691;1263;107491;-84
2024/03/13 04:54:17;;;;;;;36.70;23.70;;;;;;;6.07;98.87;100031.86;130587;1258;108694;-83
2024/03/13 04:57:20;;;;;;;33.90;22.70;;;;;;;6.09;98.92;100034.48;130526;1263;106495;-81
2024/03/13 05:00:23;;;;;;;33.00;21.10;;;;;;;6.08;98.91;100036.37;130608;1264;107478;-82
2024/03/13 05:03:26;;;;;;;32.00;18.30;;;;;;;6.07;98.91;100037.17;130520;1264;106585;-83
2024/03/13 05:06:29;;;;;;;36.30;23.00;;;;;;;6.09;98.74;100036.80;130513;1257;98579;-81
2024/03/13 05:09:32;;;;;;;41.50;23.70;;;;;;;6.11;98.73;100040.86;130515;1260;98891;-83
2024/03/13 05:12:36;;;;;;;40.50;23.60;;;;;;;6.11;98.72;100043.33;130522;1260;99228;-81
2024/03/13 05:15:39;;;;;;;37.80;23.00;;;;;;;6.04;99.25;100046.58;130478;1257;108781;-83
2024/03/13 05:18:43;;;;;;;39.80;22.80;;;;;;;5.94;99.51;100051.61;130458;1260;108641;-83
2024/03/13 05:21:46;;;;;;;43.90;25.60;;;;;;;5.90;99.71;100051.23;130518;1257;108767;-84
2024/03/13 05:24:49;;;;;;;34.00;21.90;;;;;;;5.88;99.89;100053.15;130478;1264;107736;-83
2024/03/13 05:27:52;;;;;;;36.40;23.00;;;;;;;5.88;99.88;100055.98;130539;1258;106257;-83
2024/03/13 05:30:55;;;;;;;41.40;26.90;;;;;;;5.86;99.84;100057.90;130633;1260;106528;-83
2024/03/13 05:34:00;;;;;;;36.70;22.30;;;;;;;5.83;99.47;100059.58;130520;1270;107630;-84
2024/03/13 05:37:03;;;;;;;30.50;19.10;;;;;;;5.83;99.89;100065.11;130506;1263;107535;-83
2024/03/13 05:40:12;;;;;;;28.40;17.60;;;;;;;5.79;99.79;100066.33;130632;1267;97964;-83
2024/03/13 05:43:16;;;;;;;32.00;19.80;;;;;;;5.81;99.69;100068.25;130578;1257;107348;-84
2024/03/13 05:46:19;;;;;;;31.40;20.40;;;;;;;5.87;99.70;100070.92;130927;1265;97968;-84
2024/03/13 05:49:22;;;;;;;31.30;20.50;;;;;;;5.90;99.78;100073.62;130551;1260;107654;-84
2024/03/13 05:52:25;;;;;;;39.20;23.40;;;;;;;5.85;99.50;100075.15;130555;1257;98736;-83
2024/03/13 05:55:28;;;;;;;27.30;18.10;;;;;;;5.82;99.72;100071.31;130560;1260;108733;-83
2024/03/13 05:58:31;;;;;;;29.90;18.10;;;;;;;5.84;99.36;100078.93;130574;1263;98511;-83
2024/03/13 06:01:35;;;;;;;32.60;19.90;;;;;;;5.90;99.63;100077.39;130599;1257;106908;-83
2024/03/13 06:04:38;;;;;;;30.80;20.40;;;;;;;5.92;99.80;100079.19;130610;1260;106450;-83
2024/03/13 06:07:41;;;;;;;31.80;20.10;;;;;;;5.93;99.68;100084.75;130610;1263;99340;-83
2024/03/13 06:10:44;;;;;;;31.30;20.60;;;;;;;5.95;99.62;100089.52;130581;1261;98060;-83
2024/03/13 06:13:47;;;;;;;29.40;18.80;;;;;;;5.95;99.65;100090.73;130685;1264;109398;-83
2024/03/13 06:16:50;;;;;;;28.00;17.90;;;;;;;5.91;99.78;100093.57;130595;1260;108984;-83
2024/03/13 06:19:53;;;;;;;27.50;17.20;;;;;;;5.89;99.90;100099.69;130532;1270;108466;-83
2024/03/13 06:22:56;;;;;;;34.40;20.70;;;;;;;5.92;99.84;100102.42;130572;1258;108009;-83
2024/03/13 06:25:59;;;;;;;29.70;19.50;;;;;;;6.02;99.69;100103.09;130544;1270;106517;-83
2024/03/13 06:32:29;;;;;;;33.80;21.30;;;;;;;6.17;98.78;100113.87;130596;1263;108686;-80
2024/03/13 06:35:33;;;;;;;27.60;17.40;;;;;;;6.14;98.80;100116.36;130560;1257;108861;-78
2024/03/13 06:38:36;;;;;;;27.20;17.00;;;;;;;6.15;99.47;100118.81;130314;1260;108697;-78
2024/03/13 06:41:39;;;;;;;24.60;16.10;;;;;;;6.20;99.15;100122.73;130370;1264;98012;-79
2024/03/13 06:44:43;;;;;;;32.80;20.30;;;;;;;6.28;98.92;100127.21;130386;1263;99203;-78
2024/03/13 06:47:46;;;;;;;32.10;20.70;;;;;;;6.37;98.91;100132.14;130323;1260;108744;-78
2024/03/13 06:50:49;;;;;;;33.10;21.70;;;;;;;6.43;98.64;100132.19;130378;1273;107668;-78
2024/03/13 06:53:52;;;;;;;34.10;21.50;;;;;;;6.41;98.43;100132.02;130446;1260;106569;-78
2024/03/13 06:56:56;;;;;;;39.10;23.70;;;;;;;6.38;98.63;100139.27;130441;1264;108702;-79
2024/03/13 06:59:59;;;;;;;35.00;22.30;;;;;;;6.25;98.65;100141.58;130348;1264;106439;-79
2024/03/13 07:03:03;;;;;;;30.80;19.00;;;;;;;6.14;98.76;100138.66;130462;1261;108458;-80
2024/03/13 07:06:06;;;;;;;30.00;18.30;;;;;;;6.10;99.32;100145.34;134568;1256;106781;-79
2024/03/13 07:09:09;;;;;;;34.90;21.90;;;;;;;6.11;99.51;100144.35;134545;1256;107729;-80
2024/03/13 07:12:13;;;;;;;38.80;23.70;;;;;;;6.14;99.53;100147.50;134602;1255;106555;-80
2024/03/13 07:15:16;;;;;;;38.40;24.90;;;;;;;6.14;99.24;100145.89;133771;1260;107042;-79
2024/03/13 07:18:19;;;;;;;49.20;29.30;;;;;;;6.15;99.13;100151.50;130388;1264;108324;-80
2024/03/13 07:21:22;;;;;;;33.90;20.10;;;;;;;6.21;99.16;100155.20;130315;1259;98128;-79
2024/03/13 07:24:25;;;;;;;31.00;19.00;;;;;;;6.27;99.08;100152.60;130306;1264;106599;-79
2024/03/13 07:27:29;;;;;;;33.90;21.40;;;;;;;6.39;99.01;100154.59;130495;1263;99107;-79
2024/03/13 07:30:32;;;;;;;34.60;23.00;;;;;;;6.53;98.98;100154.64;130407;1260;107877;-79
2024/03/13 07:33:35;;;;;;;37.30;23.80;;;;;;;6.57;98.64;100152.52;130334;1260;107787;-79
2024/03/13 07:36:38;;;;;;;34.90;22.80;;;;;;;6.59;98.53;100155.55;130320;1260;107682;-78
2024/03/13 07:39:41;;;;;;;33.50;21.10;;;;;;;6.60;98.86;100153.86;130317;1258;98079;-81
2024/03/13 07:42:44;;;;;;;29.90;18.30;;;;;;;6.69;98.64;100151.70;130319;1258;97981;-79
2024/03/13 07:45:47;;;;;;;29.50;17.80;;;;;;;6.68;98.43;100152.85;130320;1274;98059;-81
2024/03/13 07:48:50;;;;;;;31.80;19.10;;;;;;;6.77;98.60;100148.77;130418;1261;108109;-78
2024/03/13 07:51:58;;;;;;;34.90;22.00;;;;;;;6.92;98.72;100152.95;130388;1258;98971;-78
2024/03/13 07:55:01;;;;;;;30.30;20.00;;;;;;;7.00;98.18;100152.55;130340;1257;107857;-78
2024/03/13 07:58:04;;;;;;;31.80;20.40;;;;;;;7.08;97.69;100155.63;130289;1257;108863;-79
2024/03/13 08:01:07;;;;;;;27.90;17.70;;;;;;;7.12;97.38;100155.33;130387;1260;108638;-79
2024/03/13 08:04:11;;;;;;;26.50;16.70;;;;;;;7.19;97.77;100157.34;130518;1261;98010;-80
2024/03/13 08:07:14;;;;;;;30.70;18.40;;;;;;;7.23;97.47;100163.87;130482;1264;106491;-80
2024/03/13 08:10:18;;;;;;;29.90;18.30;;;;;;;7.23;97.01;100163.51;130391;1264;107652;-80
2024/03/13 08:13:21;;;;;;;27.30;18.20;;;;;;;7.22;97.27;100161.46;130319;1260;108776;-80
2024/03/13 08:16:24;;;;;;;27.70;18.10;;;;;;;7.27;97.46;100161.88;130473;1260;107744;-80
2024/03/13 08:19:29;;;;;;;30.00;19.00;;;;;;;7.33;97.38;100164.24;130383;1259;108622;-80
2024/03/13 08:22:32;;;;;;;26.50;15.90;;;;;;;7.28;96.51;100165.19;130451;1273;107948;-79
2024/03/13 08:25:35;;;;;;;37.20;25.40;;;;;;;7.25;96.19;100169.49;130368;1258;97941;-78
2024/03/13 08:28:40;;;;;;;35.40;23.00;;;;;;;7.16;96.23;100169.65;130374;1273;108556;-77
2024/03/13 08:31:47;;;;;;;47.60;31.00;;;;;;;7.15;96.65;100169.36;130375;1257;108754;-79
2024/03/13 08:34:50;;;;;;;29.70;19.50;;;;;;;7.15;96.89;100174.48;130390;1261;107856;-78
2024/03/13 08:37:53;;;;;;;29.30;18.00;;;;;;;7.13;95.99;100177.30;130352;1263;108357;-78
2024/03/13 08:40:57;;;;;;;23.70;15.10;;;;;;;7.13;96.80;100177.88;130347;1263;108397;-79
2024/03/13 08:44:02;;;;;;;25.60;16.90;;;;;;;7.17;96.52;100180.15;130388;1263;98024;-78
2024/03/13 08:47:06;;;;;;;28.70;18.70;;;;;;;7.22;96.58;100179.88;130353;1257;107888;-78
2024/03/13 08:50:09;;;;;;;27.20;18.10;;;;;;;7.34;96.70;100183.13;130297;1265;106482;-78
2024/03/13 08:53:14;;;;;;;26.70;17.70;;;;;;;7.39;95.89;100184.93;130417;1264;106608;-81
2024/03/13 08:56:17;;;;;;;24.80;16.50;;;;;;;7.42;95.70;100188.39;130693;1259;107693;-80
2024/03/13 08:59:20;;;;;;;23.50;15.80;;;;;;;7.44;95.83;100190.71;130404;1264;98047;-79
2024/03/13 09:02:24;;;;;;;24.00;14.70;;;;;;;7.49;95.97;100188.99;130393;1264;106538;-78
2024/03/13 09:05:29;;;;;;;25.30;16.80;;;;;;;7.57;95.64;100187.29;130362;1263;108621;-79
2024/03/13 09:08:33;;;;;;;39.40;24.20;;;;;;;7.59;95.46;100188.11;130347;1273;106965;-79
2024/03/13 09:11:37;;;;;;;38.40;22.00;;;;;;;7.60;95.07;100188.22;130428;1260;106604;-78
2024/03/13 09:14:39;;;;;;;26.40;17.50;;;;;;;7.64;95.87;100189.87;130327;1264;99199;-79
2024/03/13 09:17:42;;;;;;;24.60;16.60;;;;;;;7.70;95.22;100194.29;130303;1271;99143;-79
2024/03/13 09:20:45;;;;;;;21.90;14.60;;;;;;;7.73;95.69;100192.20;130408;1259;98784;-78
2024/03/13 09:23:50;;;;;;;24.30;15.10;;;;;;;7.85;95.27;100191.56;130500;1264;97999;-81
2024/03/13 09:26:56;;;;;;;23.30;15.50;;;;;;;7.94;94.76;100194.11;130532;1263;106543;-79
2024/03/13 09:30:02;;;;;;;22.80;15.60;;;;;;;8.03;94.62;100197.67;130461;1263;108584;-80
2024/03/13 09:33:08;;;;;;;22.30;15.60;;;;;;;8.16;94.68;100204.88;130420;1257;107532;-79
2024/03/13 09:36:11;;;;;;;22.10;15.80;;;;;;;8.21;93.71;100208.44;130426;1263;107887;-80
2024/03/13 09:39:15;;;;;;;21.50;15.70;;;;;;;8.20;94.25;100211.41;130476;1264;106525;-78
2024/03/13 09:42:21;;;;;;;29.80;19.20;;;;;;;8.26;94.17;100213.86;130296;1264;107656;-80
2024/03/13 09:45:24;;;;;;;23.80;15.30;;;;;;;8.21;93.57;100220.50;130123;1263;107580;-79
2024/03/13 09:48:27;;;;;;;21.40;13.90;;;;;;;8.16;93.64;100224.57;130317;1264;97942;-79
2024/03/13 09:51:30;;;;;;;23.80;15.50;;;;;;;8.14;93.59;100225.94;130408;1263;99152;-78
2024/03/13 09:54:34;;;;;;;24.20;16.20;;;;;;;8.15;93.45;100225.30;130342;1256;108876;-79
2024/03/13 09:57:38;;;;;;;24.80;16.80;;;;;;;8.20;94.16;100227.66;130514;1264;106342;-79
2024/03/13 10:00:43;;;;;;;27.90;17.90;;;;;;;8.25;94.05;100227.40;130436;1263;106764;-80
2024/03/13 10:03:47;;;;;;;24.70;17.30;;;;;;;8.25;93.43;100231.35;130379;1263;106511;-79
2024/03/13 10:06:53;;;;;;;27.00;18.10;;;;;;;8.19;93.60;100238.04;130578;1260;108639;-79
2024/03/13 10:09:56;;;;;;;27.40;17.80;;;;;;;8.10;93.51;100241.02;130357;1263;107712;-78
2024/03/13 10:12:59;;;;;;;22.60;14.80;;;;;;;7.97;92.86;100243.42;130342;1264;97958;-79
2024/03/13 10:16:02;;;;;;;27.40;17.70;;;;;;;7.92;93.92;100241.02;130360;1257;98622;-79
2024/03/13 10:19:05;;;;;;;29.00;18.80;;;;;;;8.01;94.10;100235.58;130319;1257;99016;-79
2024/03/13 10:22:08;;;;;;;26.90;17.40;;;;;;;8.14;93.93;100232.66;130349;1260;107799;-79
2024/03/13 10:25:13;;;;;;;26.80;18.20;;;;;;;8.14;93.37;100234.61;130298;1264;98120;-78
2024/03/13 10:28:18;;;;;;;28.90;17.90;;;;;;;8.11;93.50;100234.86;130315;1257;107795;-79
2024/03/13 10:31:21;;;;;;;27.50;18.00;;;;;;;8.15;93.60;100239.54;130333;1257;106243;-79
2024/03/13 10:34:24;;;;;;;27.80;17.50;;;;;;;8.18;93.39;100238.73;130286;1264;106674;-78
2024/03/13 10:37:27;;;;;;;28.60;16.80;;;;;;;8.16;93.16;100239.58;130289;1259;99120;-79
2024/03/13 10:40:31;;;;;;;31.20;18.80;;;;;;;8.19;93.54;100235.73;130328;1272;98726;-79
2024/03/13 10:43:34;;;;;;;33.40;19.70;;;;;;;8.23;93.68;100238.39;130397;1263;107827;-79
2024/03/13 10:46:37;;;;;;;32.00;19.40;;;;;;;8.27;93.61;100232.59;130281;1263;99128;-79
2024/03/13 10:49:41;;;;;;;29.60;18.30;;;;;;;8.28;93.39;100232.84;130304;1273;108609;-79
2024/03/13 10:52:44;;;;;;;28.10;18.70;;;;;;;8.29;93.17;100233.11;130353;1257;107170;-79
2024/03/13 10:55:47;;;;;;;30.50;18.80;;;;;;;8.31;92.99;100230.66;130244;1258;106433;-79
2024/03/13 10:58:50;;;;;;;27.20;16.30;;;;;;;8.25;92.45;100231.30;130278;1261;99123;-79
2024/03/13 11:01:55;;;;;;;29.80;18.10;;;;;;;8.23;93.03;100236.07;130410;1258;98012;-79
2024/03/13 11:04:58;;;;;;;32.30;20.00;;;;;;;8.32;93.18;100235.36;130394;1262;106588;-79
2024/03/13 11:08:01;;;;;;;29.80;19.00;;;;;;;8.33;92.93;100237.56;130245;1260;98050;-79
2024/03/13 11:11:05;;;;;;;30.00;19.60;;;;;;;8.31;92.45;100235.84;130356;1259;107035;-81
2024/03/13 11:14:09;;;;;;;33.80;21.50;;;;;;;8.26;92.44;100241.83;130437;1261;107777;-79
2024/03/13 11:17:12;;;;;;;32.80;20.70;;;;;;;8.22;92.28;100245.95;130258;1259;107707;-79
2024/03/13 11:20:15;;;;;;;30.20;18.60;;;;;;;8.14;92.10;100248.10;130325;1264;98942;-79
2024/03/13 11:23:19;;;;;;;30.30;18.40;;;;;;;8.08;92.29;100247.88;130383;1257;108638;-79
2024/03/13 11:26:22;;;;;;;28.40;18.60;;;;;;;7.98;91.49;100244.58;130354;1257;107564;-79
2024/03/13 11:29:27;;;;;;;35.90;20.70;;;;;;;7.89;91.87;100240.45;130252;1256;98028;-78
2024/03/13 11:32:30;;;;;;;32.90;20.50;;;;;;;7.84;92.54;100237.46;130374;1262;108620;-81
2024/03/13 11:35:33;;;;;;;29.40;19.80;;;;;;;7.87;92.59;100231.70;130485;1261;107933;-81
2024/03/13 11:38:36;;;;;;;29.20;18.40;;;;;;;7.91;92.81;100231.02;130388;1257;106595;-81
2024/03/13 11:41:39;;;;;;;27.60;16.80;;;;;;;7.99;92.71;100231.14;130488;1263;98058;-81
2024/03/13 11:44:43;;;;;;;33.30;19.30;;;;;;;8.09;92.68;100233.32;130486;1263;106985;-81
2024/03/13 11:47:47;;;;;;;31.60;19.80;;;;;;;8.20;92.80;100226.63;130488;1257;108401;-78
2024/03/13 11:51:07;;;;;;;30.30;20.30;;;;;;;8.32;92.39;100224.30;130353;1264;106471;-78
2024/03/13 11:54:13;;;;;;;25.10;16.60;;;;;;;8.35;92.00;100223.33;130436;1263;107434;-81
2024/03/13 11:57:17;;;;;;;27.90;19.30;;;;;;;8.40;91.83;100226.10;130394;1264;109094;-81
2024/03/13 12:00:21;;;;;;;80.70;42.00;;;;;;;8.40;91.74;100228.42;130369;1264;107844;-81
2024/03/13 12:03:30;;;;;;;31.80;20.10;;;;;;;8.32;91.14;100229.98;130542;1263;108705;-81
2024/03/13 12:06:36;;;;;;;28.10;17.90;;;;;;;8.22;91.59;100232.86;130513;1263;106803;-81
2024/03/13 12:09:39;;;;;;;29.00;18.80;;;;;;;8.19;91.51;100231.33;130394;1259;108549;-81
2024/03/13 12:12:43;;;;;;;33.40;19.40;;;;;;;8.17;92.15;100230.25;130383;1263;108568;-81
2024/03/13 12:15:47;;;;;;;33.20;19.60;;;;;;;8.22;91.96;100227.71;130406;1259;107766;-80
2024/03/13 12:18:51;;;;;;;31.20;20.20;;;;;;;8.24;92.04;100223.83;130364;1264;108673;-81
2024/03/13 12:21:54;;;;;;;29.60;18.60;;;;;;;8.29;91.97;100221.25;130380;1259;108651;-81
2024/03/13 12:24:57;;;;;;;26.50;16.90;;;;;;;8.34;91.93;100219.16;130391;1257;108630;-81
2024/03/13 12:28:00;;;;;;;29.10;17.80;;;;;;;8.36;91.53;100223.67;130352;1259;108740;-81
2024/03/13 12:31:03;;;;;;;27.40;18.20;;;;;;;8.30;91.24;100225.39;130446;1259;97980;-81
2024/03/13 12:34:06;;;;;;;30.30;19.60;;;;;;;8.35;91.45;100223.85;130337;1263;106638;-81
2024/03/13 12:37:15;;;;;;;29.10;20.00;;;;;;;8.43;91.41;100219.83;130382;1263;99154;-80
2024/03/13 12:40:18;;;;;;;30.60;20.70;;;;;;;8.48;91.34;100219.16;130349;1263;106786;-80
2024/03/13 12:43:22;;;;;;;41.00;25.60;;;;;;;8.50;90.67;100220.25;130482;1257;97970;-80
2024/03/13 12:46:25;;;;;;;42.80;26.00;;;;;;;8.49;91.26;100219.46;130544;1264;106453;-80
2024/03/13 12:49:28;;;;;;;33.80;20.70;;;;;;;8.54;91.75;100215.29;130360;1263;107143;-80
2024/03/13 12:52:31;;;;;;;26.40;16.90;;;;;;;8.68;91.70;100217.52;130353;1261;97971;-80
2024/03/13 12:55:34;;;;;;;30.20;19.30;;;;;;;8.86;91.59;100217.48;130353;1264;98614;-79
2024/03/13 12:58:37;;;;;;;29.50;19.20;;;;;;;8.96;90.50;100214.80;130213;1264;107497;-81
2024/03/13 13:01:41;;;;;;;29.00;20.00;;;;;;;9.01;90.53;100214.66;130306;1264;108644;-81
2024/03/13 13:04:45;;;;;;;27.30;19.20;;;;;;;9.10;90.77;100217.58;130388;1257;108731;-81
2024/03/13 13:07:50;;;;;;;26.80;17.70;;;;;;;9.17;90.58;100210.70;130339;1264;108728;-79
2024/03/13 13:10:55;;;;;;;28.40;19.80;;;;;;;9.23;90.28;100217.00;130271;1257;108127;-79
2024/03/13 13:13:58;;;;;;;27.70;19.30;;;;;;;9.16;89.21;100218.21;130341;1264;108811;-81
2024/03/13 13:17:01;;;;;;;26.90;18.50;;;;;;;9.04;89.30;100221.27;130418;1263;98065;-79
2024/03/13 13:20:08;;;;;;;28.50;19.40;;;;;;;9.01;89.85;100223.31;130271;1262;98822;-79
2024/03/13 13:23:12;;;;;;;30.60;19.60;;;;;;;8.93;89.41;100226.01;130307;1263;108486;-80
2024/03/13 13:26:15;;;;;;;31.20;20.30;;;;;;;8.81;89.27;100225.16;130388;1262;107637;-81
2024/03/13 13:29:18;;;;;;;27.80;20.00;;;;;;;8.77;90.10;100228.38;130394;1262;98724;-80
2024/03/13 13:32:23;;;;;;;28.90;20.70;;;;;;;8.87;90.51;100230.98;130412;1263;97925;-81
2024/03/13 13:35:26;;;;;;;30.30;19.40;;;;;;;8.93;90.01;100229.55;130381;1261;108463;-79
2024/03/13 13:38:29;;;;;;;26.20;18.10;;;;;;;8.98;90.16;100224.86;130294;1257;107669;-79
2024/03/13 13:41:34;;;;;;;29.00;18.40;;;;;;;9.13;89.89;100228.28;130229;1257;108496;-79
2024/03/13 13:44:37;;;;;;;27.50;18.70;;;;;;;9.21;89.36;100220.38;130315;1265;106852;-80
2024/03/13 13:47:44;;;;;;;28.00;19.50;;;;;;;9.31;89.98;100222.30;130372;1263;108741;-81
2024/03/13 13:50:50;;;;;;;26.40;18.40;;;;;;;9.42;89.64;100223.73;130320;1263;107414;-80
2024/03/13 13:53:53;;;;;;;27.90;19.70;;;;;;;9.40;89.01;100226.23;130447;1264;107716;-78
2024/03/13 13:56:56;;;;;;;28.20;19.40;;;;;;;9.35;89.31;100219.96;130306;1264;99161;-80
2024/03/13 13:59:59;;;;;;;30.50;20.20;;;;;;;9.43;89.50;100223.13;130430;1256;98122;-81
2024/03/13 14:03:03;;;;;;;28.80;17.80;;;;;;;9.50;89.27;100221.59;130287;1257;107667;-81
2024/03/13 14:06:09;;;;;;;29.20;18.60;;;;;;;9.55;89.20;100226.29;130474;1260;99121;-80
2024/03/13 14:09:13;;;;;;;26.20;17.90;;;;;;;9.54;88.26;100225.94;130234;1264;108576;-81